createdAt,value
2018-12-24T00:04:39.534Z,6.80
2018-12-24T00:07:22.019Z,6.80
2018-12-24T00:10:02.347Z,6.80
2018-12-24T00:13:05.360Z,6.80
2018-12-24T00:18:43.776Z,6.70
2018-12-24T00:21:25.679Z,6.70
2018-12-24T00:23:57.128Z,6.70
2018-12-24T00:26:28.590Z,6.70
2018-12-24T00:29:01.530Z,6.60
2018-12-24T00:31:37.596Z,6.70
2018-12-24T00:34:08.166Z,6.70
2018-12-24T00:36:38.506Z,6.60
2018-12-24T00:39:08.751Z,6.70
2018-12-24T00:41:38.759Z,6.60
2018-12-24T00:44:09.419Z,6.60
2018-12-24T00:46:41.182Z,6.70
2018-12-24T00:49:11.870Z,6.40
2018-12-24T00:51:41.951Z,6.50
2018-12-24T00:54:12.263Z,6.30
2018-12-24T00:56:46.391Z,6.30
2018-12-24T00:59:16.991Z,6.20
2018-12-24T01:01:48.893Z,6.20
2018-12-24T01:04:19.201Z,6.20
2018-12-24T01:06:49.512Z,6.20
2018-12-24T01:09:19.554Z,6.20
2018-12-24T01:11:50.022Z,6.20
2018-12-24T01:14:20.511Z,6.20
2018-12-24T01:16:50.650Z,6.10
2018-12-24T01:19:20.898Z,6.20
2018-12-24T01:21:50.936Z,6.10
2018-12-24T01:24:21.017Z,6.20
2018-12-24T01:26:51.599Z,6.10
2018-12-24T01:29:21.659Z,6.20
2018-12-24T01:31:51.688Z,6.10
2018-12-24T01:34:22.004Z,6.10
2018-12-24T01:36:52.009Z,6.10
2018-12-24T01:39:22.278Z,6.10
2018-12-24T01:41:52.962Z,6.10
2018-12-24T01:44:23.054Z,6.10
2018-12-24T01:46:53.123Z,6.10
2018-12-24T01:49:23.261Z,6.10
2018-12-24T01:51:55.959Z,6.10
2018-12-24T01:54:26.080Z,6.20
2018-12-24T01:56:56.543Z,6.20
2018-12-24T01:59:26.570Z,6.20
2018-12-24T02:01:56.590Z,6.20
2018-12-24T02:04:27.136Z,6.20
2018-12-24T02:06:58.350Z,6.20
2018-12-24T02:09:28.407Z,6.10
2018-12-24T02:11:58.912Z,6.10
2018-12-24T02:14:29.080Z,6.20
2018-12-24T02:16:59.218Z,6.20
2018-12-24T02:19:29.724Z,6.20
2018-12-24T02:21:59.796Z,6.20
2018-12-24T02:24:29.882Z,6.20
2018-12-24T02:27:00.000Z,6.20
2018-12-24T02:29:30.018Z,6.20
2018-12-24T02:32:00.163Z,6.10
2018-12-24T02:34:30.212Z,6.10
2018-12-24T02:37:00.348Z,6.10
2018-12-24T02:39:30.879Z,6.10
2018-12-24T02:42:00.923Z,6.10
2018-12-24T02:44:31.331Z,6.20
2018-12-24T02:47:01.389Z,6.10
2018-12-24T02:49:31.447Z,6.10
2018-12-24T02:52:01.979Z,6.20
2018-12-24T02:54:32.065Z,6.10
2018-12-24T02:57:02.156Z,6.20
2018-12-24T02:59:32.173Z,6.20
2018-12-24T03:02:07.091Z,6.20
2018-12-24T03:04:37.170Z,6.10
2018-12-24T03:07:07.752Z,6.20
2018-12-24T03:09:37.824Z,6.20
2018-12-24T03:12:08.180Z,6.30
2018-12-24T03:14:38.463Z,6.30
2018-12-24T03:17:08.520Z,6.20
2018-12-24T03:19:38.892Z,6.20
2018-12-24T03:22:09.159Z,6.20
2018-12-24T03:24:39.209Z,6.30
2018-12-24T03:27:09.256Z,6.30
2018-12-24T03:29:39.291Z,6.30
2018-12-24T03:32:09.591Z,6.30
2018-12-24T03:34:40.324Z,6.30
2018-12-24T03:37:10.410Z,6.30
2018-12-24T03:39:40.474Z,6.30
2018-12-24T03:42:10.699Z,6.30
2018-12-24T03:44:40.772Z,6.30
2018-12-24T03:47:11.398Z,6.30
2018-12-24T03:49:41.508Z,6.30
2018-12-24T03:52:11.713Z,6.30
2018-12-24T03:54:41.770Z,6.30
2018-12-24T03:57:12.210Z,6.30
2018-12-24T03:59:42.298Z,6.30
2018-12-24T04:02:12.363Z,6.30
2018-12-24T04:04:43.111Z,6.30
2018-12-24T04:07:13.300Z,6.30
2018-12-24T04:09:43.487Z,6.30
2018-12-24T04:12:13.617Z,6.30
2018-12-24T04:14:44.096Z,6.30
2018-12-24T04:17:14.163Z,6.20
2018-12-24T04:19:46.678Z,6.30
2018-12-24T04:22:16.751Z,6.30
2018-12-24T04:24:46.840Z,6.30
2018-12-24T04:27:16.953Z,6.30
2018-12-24T04:29:46.957Z,6.30
2018-12-24T04:32:17.038Z,6.40
2018-12-24T04:34:47.437Z,6.30
2018-12-24T04:37:17.455Z,6.30
2018-12-24T04:39:47.455Z,6.30
2018-12-24T04:42:17.476Z,6.40
2018-12-24T04:44:47.569Z,6.40
2018-12-24T04:47:17.594Z,6.30
2018-12-24T04:49:47.891Z,6.40
2018-12-24T04:52:18.034Z,6.30
2018-12-24T04:54:48.057Z,6.40
2018-12-24T04:57:18.094Z,6.40
2018-12-24T04:59:48.144Z,6.40
2018-12-24T05:02:18.191Z,6.40
2018-12-24T05:04:48.654Z,6.40
2018-12-24T05:07:18.738Z,6.40
2018-12-24T05:09:48.898Z,6.40
2018-12-24T05:12:19.547Z,6.40
2018-12-24T05:14:49.564Z,6.40
2018-12-24T05:17:19.716Z,6.50
2018-12-24T05:19:50.448Z,6.40
2018-12-24T05:22:20.647Z,6.40
2018-12-24T05:24:50.827Z,6.40
2018-12-24T05:27:21.442Z,6.40
2018-12-24T05:29:51.562Z,6.30
2018-12-24T05:32:24.968Z,6.30
2018-12-24T05:34:55.067Z,6.30
2018-12-24T05:37:25.589Z,6.30
2018-12-24T05:39:55.648Z,6.30
2018-12-24T05:42:25.780Z,6.30
2018-12-24T05:44:59.164Z,6.30
2018-12-24T05:47:29.567Z,6.30
2018-12-24T05:49:59.683Z,6.30
2018-12-24T05:52:30.587Z,6.40
2018-12-24T05:55:00.849Z,6.40
2018-12-24T05:57:30.908Z,6.40
2018-12-24T06:00:01.184Z,6.40
2018-12-24T06:02:35.303Z,6.40
2018-12-24T06:05:17.335Z,6.50
2018-12-24T06:07:50.348Z,6.50
2018-12-24T06:10:20.414Z,6.50
2018-12-24T06:12:50.512Z,6.50
2018-12-24T06:15:20.520Z,6.50
2018-12-24T06:17:51.083Z,6.50
2018-12-24T06:20:21.089Z,6.50
2018-12-24T06:22:51.125Z,6.50
2018-12-24T06:25:21.640Z,6.50
2018-12-24T06:27:51.715Z,6.50
2018-12-24T06:30:21.768Z,6.50
2018-12-24T06:32:51.976Z,6.60
2018-12-24T06:35:22.076Z,6.50
2018-12-24T06:37:52.644Z,6.50
2018-12-24T06:40:22.623Z,6.50
2018-12-24T06:42:52.839Z,6.50
2018-12-24T06:45:25.148Z,6.50
2018-12-24T06:47:55.459Z,6.50
2018-12-24T06:50:25.829Z,6.50
2018-12-24T06:52:57.363Z,6.60
2018-12-24T06:55:27.470Z,6.50
2018-12-24T06:57:57.896Z,6.50
2018-12-24T07:00:27.935Z,6.50
2018-12-24T07:03:00.872Z,6.50
2018-12-24T07:05:31.573Z,6.50
2018-12-24T07:08:01.663Z,6.50
2018-12-24T07:10:31.847Z,6.50
2018-12-24T07:13:02.605Z,6.50
2018-12-24T07:15:33.078Z,6.50
2018-12-24T07:18:03.327Z,6.50
2018-12-24T07:20:37.933Z,6.50
2018-12-24T07:23:08.058Z,6.50
2018-12-24T07:25:38.535Z,6.50
2018-12-24T07:28:08.642Z,6.60
2018-12-24T07:30:40.066Z,6.50
2018-12-24T07:33:10.879Z,6.60
2018-12-24T07:35:40.878Z,6.60
2018-12-24T07:38:11.522Z,6.70
2018-12-24T07:40:41.971Z,6.60
2018-12-24T07:43:12.291Z,6.60
2018-12-24T07:45:46.670Z,6.60
2018-12-24T07:49:06.451Z,6.70
2018-12-24T07:51:48.229Z,6.70
2018-12-24T07:54:29.696Z,6.70
2018-12-24T07:57:11.802Z,6.70
2018-12-24T07:59:53.027Z,6.70
2018-12-24T08:02:34.581Z,6.80
2018-12-24T08:05:17.204Z,6.80
2018-12-24T08:07:58.934Z,6.70
2018-12-24T08:10:40.596Z,6.70
2018-12-24T08:13:22.006Z,6.70
2018-12-24T08:16:03.018Z,6.70
2018-12-24T08:18:44.534Z,6.70
2018-12-24T08:21:26.186Z,6.60
2018-12-24T08:24:07.646Z,6.70
2018-12-24T08:26:52.323Z,6.70
2018-12-24T08:29:32.121Z,6.80
2018-12-24T08:32:13.304Z,6.80
2018-12-24T08:34:54.608Z,6.70
2018-12-24T08:37:36.547Z,6.80
2018-12-24T08:40:17.971Z,6.80
2018-12-24T08:42:58.870Z,6.80
2018-12-24T08:45:40.591Z,6.80
2018-12-24T08:48:22.121Z,6.80
2018-12-24T08:51:03.201Z,6.80
2018-12-24T08:53:45.081Z,6.80
2018-12-24T08:56:29.175Z,6.80
2018-12-24T08:59:09.287Z,6.70
2018-12-24T09:01:52.017Z,6.70
2018-12-24T09:04:33.892Z,6.80
2018-12-24T09:07:15.495Z,6.80
2018-12-24T09:09:56.773Z,6.80
2018-12-24T09:12:38.178Z,6.80
2018-12-24T09:15:19.710Z,6.90
2018-12-24T09:18:01.034Z,6.80
2018-12-24T09:20:41.880Z,6.80
2018-12-24T09:23:29.043Z,6.90
2018-12-24T09:26:10.285Z,6.90
2018-12-24T09:28:54.290Z,6.90
2018-12-24T09:31:39.046Z,7.00
2018-12-24T09:34:22.180Z,7.00
2018-12-24T09:37:29.259Z,7.00
2018-12-24T09:39:58.105Z,7.00
2018-12-24T09:42:39.374Z,7.10
2018-12-24T09:45:21.641Z,7.10
2018-12-24T09:51:01.311Z,7.00
2018-12-24T09:53:43.176Z,7.10
2018-12-24T09:56:24.657Z,7.00
2018-12-24T09:59:06.319Z,7.00
2018-12-24T10:01:48.081Z,7.10
2018-12-24T10:04:34.208Z,7.20
2018-12-24T10:10:34.991Z,7.30
2018-12-24T10:13:19.029Z,7.00
2018-12-24T10:16:11.094Z,7.00
2018-12-24T10:18:43.742Z,7.20
2018-12-24T10:21:26.319Z,7.30
2018-12-24T10:24:08.174Z,7.30
2018-12-24T10:26:49.236Z,7.30
2018-12-24T10:29:32.460Z,7.30
2018-12-24T10:32:14.263Z,7.30
2018-12-24T10:34:55.898Z,7.30
2018-12-24T10:37:37.823Z,7.30
2018-12-24T10:40:23.214Z,7.30
2018-12-24T10:43:08.739Z,7.30
2018-12-24T10:45:51.898Z,7.20
2018-12-24T10:48:36.487Z,7.20
2018-12-24T10:51:18.043Z,7.20
2018-12-24T10:54:34.192Z,7.20
2018-12-24T10:56:47.001Z,7.10
2018-12-24T10:59:28.228Z,7.00
2018-12-24T11:02:08.165Z,7.00
2018-12-24T11:04:57.306Z,7.00
2018-12-24T11:07:38.979Z,7.00
2018-12-24T11:10:22.633Z,6.90
2018-12-24T11:13:04.270Z,6.80
2018-12-24T11:15:45.983Z,6.80
2018-12-24T11:18:27.718Z,6.80
2018-12-24T11:21:10.335Z,6.90
2018-12-24T11:23:51.683Z,6.90
2018-12-24T11:26:31.709Z,6.90
2018-12-24T11:32:14.211Z,7.10
2018-12-24T11:34:55.602Z,7.30
2018-12-24T11:37:37.351Z,7.30
2018-12-24T11:40:19.222Z,7.40
2018-12-24T11:43:00.611Z,7.30
2018-12-24T11:45:46.884Z,7.30
2018-12-24T11:48:28.378Z,7.20
2018-12-24T11:51:10.072Z,7.20
2018-12-24T11:53:51.421Z,7.20
2018-12-24T11:56:33.069Z,7.20
2018-12-24T11:59:13.935Z,7.20
2018-12-24T12:01:55.443Z,7.20
2018-12-24T12:04:37.990Z,7.20
2018-12-24T12:07:19.517Z,7.20
2018-12-24T12:10:00.636Z,7.20
2018-12-24T12:12:42.246Z,7.10
2018-12-24T12:15:23.778Z,7.10
2018-12-24T12:18:05.135Z,7.20
2018-12-24T12:20:52.529Z,7.30
2018-12-24T12:23:31.160Z,7.20
2018-12-24T12:26:12.970Z,7.20
2018-12-24T12:28:54.809Z,7.20
2018-12-24T12:31:35.778Z,7.30
2018-12-24T12:34:17.654Z,7.30
2018-12-24T12:37:01.783Z,7.30
2018-12-24T12:39:43.323Z,7.30
2018-12-24T12:42:27.212Z,7.30
2018-12-24T12:45:09.422Z,7.40
2018-12-24T12:47:28.251Z,7.50
2018-12-24T12:50:17.335Z,7.50
2018-12-24T12:52:58.978Z,7.30
2018-12-24T12:55:45.600Z,7.30
2018-12-24T12:58:30.894Z,7.30
2018-12-24T13:01:22.256Z,7.30
2018-12-24T13:03:52.187Z,7.20
2018-12-24T13:06:55.184Z,7.30
2018-12-24T13:09:24.724Z,7.40
2018-12-24T13:12:06.399Z,7.50
2018-12-24T13:14:47.586Z,7.60
2018-12-24T13:17:29.125Z,8.30
2018-12-24T13:20:10.875Z,8.40
2018-12-24T13:22:41.474Z,8.20
2018-12-24T13:25:11.416Z,8.10
2018-12-24T13:28:00.317Z,8.00
2018-12-24T13:30:48.979Z,7.90
2018-12-24T13:33:30.108Z,7.80
2018-12-24T13:36:11.923Z,7.70
2018-12-24T13:38:53.927Z,7.80
2018-12-24T13:41:35.229Z,7.90
2018-12-24T13:44:18.625Z,8.00
2018-12-24T13:47:00.086Z,7.90
2018-12-24T13:49:41.483Z,7.90
2018-12-24T13:52:22.890Z,7.80
2018-12-24T13:55:04.383Z,7.90
2018-12-24T13:57:34.539Z,7.80
2018-12-24T14:00:23.418Z,7.80
2018-12-24T14:03:12.256Z,7.80
2018-12-24T14:05:53.710Z,7.50
2018-12-24T14:08:43.807Z,7.30
2018-12-24T14:11:33.548Z,7.20
2018-12-24T14:14:19.225Z,7.10
2018-12-24T14:19:52.621Z,6.90
2018-12-24T14:22:35.333Z,6.90
2018-12-24T14:25:17.736Z,6.90
2018-12-24T14:27:59.702Z,6.80
2018-12-24T14:30:42.218Z,6.90
2018-12-24T14:33:23.962Z,6.90
2018-12-24T14:36:05.044Z,7.00
2018-12-24T14:38:46.903Z,7.00
2018-12-24T14:41:28.313Z,7.10
2018-12-24T14:43:58.510Z,7.00
2018-12-24T14:47:07.783Z,7.00
2018-12-24T14:49:56.498Z,7.00
2018-12-24T14:52:38.438Z,6.90
2018-12-24T14:55:24.592Z,6.90
2018-12-24T14:58:08.644Z,6.90
2018-12-24T15:00:52.826Z,6.80
2018-12-24T15:03:34.469Z,6.80
2018-12-24T15:06:16.044Z,6.70
2018-12-24T15:09:01.064Z,6.70
2018-12-24T15:11:42.277Z,6.70
2018-12-24T15:14:23.607Z,6.60
2018-12-24T15:17:05.137Z,6.60
2018-12-24T15:19:46.784Z,6.50
2018-12-24T15:22:28.420Z,6.40
2018-12-24T15:24:58.440Z,6.40
2018-12-24T15:27:47.127Z,6.40
2018-12-24T15:30:30.487Z,6.30
2018-12-24T15:33:15.086Z,6.20
2018-12-24T15:35:56.303Z,6.10
2018-12-24T15:38:41.721Z,6.10
2018-12-24T15:41:24.313Z,6.00
2018-12-24T15:44:09.027Z,6.00
2018-12-24T15:46:55.908Z,6.00
2018-12-24T15:49:40.349Z,5.90
2018-12-24T15:52:28.236Z,5.90
2018-12-24T15:55:09.576Z,5.90
2018-12-24T15:57:51.390Z,5.90
2018-12-24T16:00:21.744Z,5.90
2018-12-24T16:03:10.700Z,5.80
2018-12-24T16:06:17.823Z,5.90
2018-12-24T16:08:46.687Z,5.90
2018-12-24T16:11:47.779Z,5.80
2018-12-24T16:14:54.747Z,5.80
2018-12-24T16:17:37.772Z,5.80
2018-12-24T16:20:19.274Z,5.80
2018-12-24T16:23:00.395Z,5.80
2018-12-24T16:25:44.603Z,5.80
2018-12-24T16:28:25.887Z,5.80
2018-12-24T16:31:07.250Z,5.80
2018-12-24T16:33:50.794Z,5.80
2018-12-24T16:36:36.104Z,5.80
2018-12-24T16:39:17.613Z,5.80
2018-12-24T16:41:58.856Z,5.70
2018-12-24T16:44:43.691Z,5.70
2018-12-24T16:47:28.342Z,5.80
2018-12-24T16:50:10.772Z,5.70
2018-12-24T16:52:52.414Z,5.80
2018-12-24T16:55:36.275Z,5.80
2018-12-24T16:58:18.100Z,5.80
2018-12-24T17:04:12.851Z,5.80
2018-12-24T17:06:54.410Z,5.80
2018-12-24T17:09:35.769Z,5.80
2018-12-24T17:12:17.567Z,5.80
2018-12-24T17:14:58.699Z,5.80
2018-12-24T17:17:40.473Z,5.80
2018-12-24T17:20:21.642Z,5.70
2018-12-24T17:23:04.171Z,5.60
2018-12-24T17:25:50.718Z,5.50
2018-12-24T17:28:24.391Z,5.40
2018-12-24T17:31:02.651Z,5.20
2018-12-24T17:33:36.047Z,5.30
2018-12-24T17:36:06.208Z,5.30
2018-12-24T17:38:36.221Z,5.20
2018-12-24T17:41:09.214Z,5.20
2018-12-24T17:43:48.860Z,5.20
2018-12-24T17:46:19.483Z,5.10
2018-12-24T17:48:49.630Z,5.10
2018-12-24T17:51:25.993Z,5.00
2018-12-24T17:53:58.644Z,5.00
2018-12-24T17:56:34.751Z,5.00
2018-12-24T17:59:05.499Z,4.90
2018-12-24T18:01:35.515Z,4.80
2018-12-24T18:04:09.183Z,4.80
2018-12-24T18:06:49.989Z,4.80
2018-12-24T18:09:21.598Z,4.90
2018-12-24T18:12:02.499Z,4.90
2018-12-24T18:14:33.210Z,4.90
2018-12-24T18:17:10.594Z,4.90
2018-12-24T18:19:43.439Z,4.90
2018-12-24T18:22:13.108Z,4.90
2018-12-24T18:24:44.379Z,4.90
2018-12-24T18:27:18.905Z,4.90
2018-12-24T18:29:52.245Z,4.90
2018-12-24T18:32:35.370Z,4.90
2018-12-24T18:35:13.588Z,4.80
2018-12-24T18:38:02.589Z,4.70
2018-12-24T18:40:43.678Z,4.60
2018-12-24T18:43:25.758Z,4.60
2018-12-24T18:46:07.292Z,4.60
2018-12-24T18:48:49.183Z,4.50
2018-12-24T18:51:39.489Z,4.50
2018-12-24T18:54:28.577Z,4.50
2018-12-24T18:57:09.482Z,4.50
2018-12-24T18:59:51.960Z,4.50
2018-12-24T19:02:34.403Z,4.40
2018-12-24T19:05:18.200Z,4.40
2018-12-24T19:07:59.953Z,4.40
2018-12-24T19:10:41.503Z,4.40
2018-12-24T19:13:22.826Z,4.40
2018-12-24T19:16:02.985Z,4.40
2018-12-24T19:18:44.324Z,4.50
2018-12-24T19:21:27.027Z,4.50
2018-12-24T19:24:11.175Z,4.40
2018-12-24T19:26:52.127Z,4.20
2018-12-24T19:29:33.393Z,4.20
2018-12-24T19:32:14.830Z,4.20
2018-12-24T19:34:57.491Z,4.10
2018-12-24T19:37:27.133Z,4.10
2018-12-24T19:40:27.672Z,4.10
2018-12-24T19:46:02.185Z,4.00
2018-12-24T19:48:47.133Z,4.00
2018-12-24T19:51:31.183Z,4.00
2018-12-24T19:54:12.915Z,4.00
2018-12-24T19:56:54.182Z,4.10
2018-12-24T19:59:36.423Z,4.10
2018-12-24T20:02:19.091Z,4.20
2018-12-24T20:05:00.451Z,4.20
2018-12-24T20:07:43.863Z,4.30
2018-12-24T20:10:25.377Z,4.30
2018-12-24T20:13:07.279Z,4.20
2018-12-24T20:15:51.955Z,4.20
2018-12-24T20:18:33.741Z,4.10
2018-12-24T20:21:16.295Z,4.10
2018-12-24T20:23:58.102Z,3.90
2018-12-24T20:26:40.103Z,3.90
2018-12-24T20:29:21.015Z,3.90
2018-12-24T20:32:03.031Z,3.80
2018-12-24T20:34:44.651Z,3.70
2018-12-24T20:37:26.441Z,3.60
2018-12-24T20:40:13.232Z,3.60
2018-12-24T20:42:54.695Z,3.60
2018-12-24T20:45:36.306Z,3.60
2018-12-24T20:48:19.818Z,3.60
2018-12-24T20:51:03.995Z,3.50
2018-12-24T20:53:45.424Z,3.50
2018-12-24T20:56:26.835Z,3.50
2018-12-24T20:59:08.391Z,3.60
2018-12-24T21:04:39.137Z,3.50
2018-12-24T21:07:21.109Z,3.60
2018-12-24T21:10:02.835Z,3.60
2018-12-24T21:12:44.263Z,3.60
2018-12-24T21:15:25.214Z,3.50
2018-12-24T21:18:15.074Z,3.60
2018-12-24T21:20:52.171Z,3.60
2018-12-24T21:23:33.581Z,3.70
2018-12-24T21:26:17.089Z,3.70
2018-12-24T21:28:48.855Z,3.60
2018-12-24T21:31:23.371Z,3.70
2018-12-24T21:33:53.779Z,3.60
2018-12-24T21:36:42.906Z,3.50
2018-12-24T21:39:24.415Z,3.50
2018-12-24T21:42:25.719Z,3.50
2018-12-24T21:44:56.011Z,3.40
2018-12-24T21:47:37.005Z,3.40
2018-12-24T21:50:19.246Z,3.30
2018-12-24T21:56:09.847Z,3.20
2018-12-24T21:58:42.260Z,3.30
2018-12-24T22:02:11.586Z,3.20
2018-12-24T22:07:55.778Z,3.10
2018-12-24T22:10:37.654Z,3.10
2018-12-24T22:13:21.431Z,3.20
2018-12-24T22:16:03.283Z,3.10
2018-12-24T22:18:45.041Z,3.20
2018-12-24T22:21:27.582Z,3.10
2018-12-24T22:24:09.257Z,3.10
2018-12-24T22:26:49.994Z,3.20
2018-12-24T22:29:34.437Z,3.20
2018-12-24T22:32:15.851Z,3.10
2018-12-24T22:34:59.566Z,3.10
2018-12-24T22:37:43.455Z,3.10
2018-12-24T22:40:24.871Z,3.20
2018-12-24T22:43:06.471Z,3.30
2018-12-24T22:45:47.863Z,3.40
2018-12-24T22:48:31.169Z,3.30
2018-12-24T22:51:12.192Z,3.30
2018-12-24T22:53:53.515Z,3.30
2018-12-24T22:56:34.989Z,3.40
2018-12-24T22:59:21.118Z,3.50
2018-12-24T23:02:00.288Z,3.50
2018-12-24T23:04:41.352Z,3.60
2018-12-24T23:07:25.223Z,3.60
2018-12-24T23:10:10.533Z,3.60
2018-12-24T23:12:56.267Z,3.70
2018-12-24T23:15:46.791Z,3.70
2018-12-24T23:18:35.750Z,3.70
2018-12-24T23:21:17.193Z,3.60
2018-12-24T23:23:58.314Z,3.50
2018-12-24T23:26:41.759Z,3.60
2018-12-24T23:32:22.368Z,3.70
2018-12-24T23:35:05.095Z,3.60
2018-12-24T23:37:46.847Z,3.40
2018-12-24T23:40:28.499Z,3.40
2018-12-24T23:43:10.088Z,3.50
2018-12-24T23:45:51.091Z,3.60
2018-12-24T23:48:32.747Z,3.50
2018-12-24T23:51:14.485Z,3.60
2018-12-24T23:53:55.620Z,3.60
2018-12-24T23:56:37.547Z,3.60
2018-12-24T23:59:18.892Z,3.60
